createdAt,value
2024-04-22T00:00:24.388Z,3.19
2024-04-22T00:02:51.067Z,3.18
2024-04-22T00:05:17.841Z,3.14
2024-04-22T00:07:44.494Z,3.12
2024-04-22T00:10:11.190Z,3.02
2024-04-22T00:12:37.973Z,3.00
2024-04-22T00:15:05.100Z,2.95
2024-04-22T00:17:31.841Z,2.93
2024-04-22T00:19:59.758Z,2.88
2024-04-22T00:22:26.510Z,2.79
2024-04-22T00:24:53.205Z,2.76
2024-04-22T00:27:19.948Z,2.75
2024-04-22T00:29:46.637Z,2.72
2024-04-22T00:32:13.282Z,2.72
2024-04-22T00:34:40.226Z,2.66
2024-04-22T00:37:07.014Z,2.65
2024-04-22T00:39:33.716Z,2.61
2024-04-22T00:42:00.697Z,2.57
2024-04-22T00:44:27.502Z,2.52
2024-04-22T00:46:54.301Z,2.47
2024-04-22T00:49:21.793Z,2.48
2024-04-22T00:51:48.481Z,2.45
2024-04-22T00:54:16.194Z,2.41
2024-04-22T00:56:43.197Z,2.41
2024-04-22T00:59:09.992Z,2.38
2024-04-22T01:01:37.265Z,2.33
2024-04-22T01:04:04.652Z,2.31
2024-04-22T01:06:31.454Z,2.30
2024-04-22T01:08:58.082Z,2.29
2024-04-22T01:11:24.831Z,2.25
2024-04-22T01:13:51.662Z,2.21
2024-04-22T01:16:18.287Z,2.24
2024-04-22T01:18:45.476Z,2.20
2024-04-22T01:21:12.076Z,2.20
2024-04-22T01:23:39.150Z,2.16
2024-04-22T01:26:06.906Z,2.16
2024-04-22T01:28:33.544Z,2.13
2024-04-22T01:31:00.280Z,2.07
2024-04-22T01:33:27.060Z,2.06
2024-04-22T01:35:53.791Z,2.05
2024-04-22T01:38:20.464Z,2.06
2024-04-22T01:40:47.184Z,2.08
2024-04-22T01:43:14.219Z,2.03
2024-04-22T01:45:40.917Z,1.98
2024-04-22T01:48:07.898Z,2.00
2024-04-22T01:50:34.670Z,1.96
2024-04-22T01:53:01.324Z,1.97
2024-04-22T01:55:28.014Z,1.96
2024-04-22T01:57:54.689Z,1.96
2024-04-22T02:00:21.312Z,1.92
2024-04-22T02:02:48.126Z,1.96
2024-04-22T02:05:14.874Z,1.95
2024-04-22T02:07:41.633Z,1.90
2024-04-22T02:10:21.227Z,1.86
2024-04-22T02:12:50.595Z,1.82
2024-04-22T02:15:17.291Z,1.73
2024-04-22T02:17:43.979Z,1.73
2024-04-22T02:20:10.683Z,1.67
2024-04-22T02:22:37.466Z,1.67
2024-04-22T02:25:04.438Z,1.63
2024-04-22T02:27:31.099Z,1.61
2024-04-22T02:29:57.751Z,1.54
2024-04-22T02:32:24.436Z,1.48
2024-04-22T02:34:52.083Z,1.48
2024-04-22T02:37:18.840Z,1.43
2024-04-22T02:39:45.774Z,1.45
2024-04-22T02:42:12.390Z,1.43
2024-04-22T02:44:39.127Z,1.37
2024-04-22T02:47:06.144Z,1.37
2024-04-22T02:49:32.961Z,1.33
2024-04-22T02:51:59.635Z,1.36
2024-04-22T02:54:29.829Z,1.28
2024-04-22T02:56:56.647Z,1.28
2024-04-22T02:59:23.443Z,1.22
2024-04-22T03:01:51.481Z,1.18
2024-04-22T03:04:18.646Z,1.22
2024-04-22T03:06:45.424Z,1.27
2024-04-22T03:09:12.037Z,1.23
2024-04-22T03:11:38.706Z,1.21
2024-04-22T03:14:05.458Z,1.17
2024-04-22T03:16:32.182Z,1.18
2024-04-22T03:18:58.846Z,1.17
2024-04-22T03:21:26.010Z,1.15
2024-04-22T03:23:52.656Z,1.16
2024-04-22T03:26:19.276Z,1.17
2024-04-22T03:28:45.980Z,1.18
2024-04-22T03:31:12.690Z,1.14
2024-04-22T03:33:39.448Z,1.15
2024-04-22T03:36:06.698Z,1.15
2024-04-22T03:38:33.414Z,1.11
2024-04-22T03:41:00.024Z,1.10
2024-04-22T03:43:26.670Z,1.07
2024-04-22T03:46:11.815Z,1.06
2024-04-22T03:48:56.924Z,1.05
2024-04-22T03:51:23.579Z,1.03
2024-04-22T03:53:50.288Z,1.01
2024-04-22T03:56:17.132Z,1.00
2024-04-22T03:58:43.822Z,0.94
2024-04-22T04:01:10.635Z,0.97
2024-04-22T04:03:37.484Z,0.95
2024-04-22T04:06:04.464Z,0.89
2024-04-22T04:08:31.118Z,0.89
2024-04-22T04:11:02.190Z,0.87
2024-04-22T04:13:29.052Z,0.82
2024-04-22T04:15:55.744Z,0.82
2024-04-22T04:18:23.592Z,0.80
2024-04-22T04:20:50.271Z,0.82
2024-04-22T04:23:16.895Z,0.83
2024-04-22T04:25:43.548Z,0.87
2024-04-22T04:28:10.255Z,0.87
2024-04-22T04:30:36.958Z,0.89
2024-04-22T04:33:03.803Z,0.86
2024-04-22T04:35:30.436Z,0.91
2024-04-22T04:37:57.084Z,0.91
2024-04-22T04:40:24.448Z,0.98
2024-04-22T04:42:51.089Z,1.00
2024-04-22T04:45:17.732Z,1.02
2024-04-22T04:47:44.490Z,1.06
2024-04-22T04:50:11.246Z,1.07
2024-04-22T04:52:37.936Z,1.14
2024-04-22T04:55:04.926Z,1.15
2024-04-22T04:57:31.540Z,1.18
2024-04-22T04:59:58.140Z,1.25
2024-04-22T05:02:24.873Z,1.29
2024-04-22T05:04:51.572Z,1.39
2024-04-22T05:07:18.262Z,1.45
2024-04-22T05:09:44.917Z,1.50
2024-04-22T05:12:11.582Z,1.55
2024-04-22T05:14:38.194Z,1.56
2024-04-22T05:17:04.870Z,1.64
2024-04-22T05:19:31.632Z,1.71
2024-04-22T05:21:58.304Z,1.78
2024-04-22T05:24:27.986Z,1.83
2024-04-22T05:26:56.471Z,1.90
2024-04-22T05:29:23.187Z,1.96
2024-04-22T05:31:49.941Z,2.03
2024-04-22T05:34:36.180Z,2.07
2024-04-22T05:37:03.882Z,2.11
2024-04-22T05:39:30.644Z,2.18
2024-04-22T05:41:57.272Z,2.23
2024-04-22T05:44:24.024Z,2.28
2024-04-22T05:46:50.723Z,2.36
2024-04-22T05:49:17.543Z,2.46
2024-04-22T05:51:44.174Z,2.54
2024-04-22T05:54:10.922Z,2.62
2024-04-22T05:56:37.900Z,2.69
2024-04-22T05:59:06.233Z,2.75
2024-04-22T06:01:33.233Z,2.79
2024-04-22T06:04:00.012Z,2.86
2024-04-22T06:06:26.703Z,2.95
2024-04-22T06:08:53.341Z,3.05
2024-04-22T06:11:20.155Z,3.20
2024-04-22T06:13:46.826Z,3.32
2024-04-22T06:16:13.748Z,3.43
2024-04-22T06:18:40.417Z,3.46
2024-04-22T06:21:07.099Z,3.58
2024-04-22T06:23:34.043Z,3.74
2024-04-22T06:26:07.690Z,3.83
2024-04-22T06:28:34.739Z,3.97
2024-04-22T06:31:01.491Z,4.08
2024-04-22T06:33:29.175Z,4.22
2024-04-22T06:35:56.228Z,4.33
2024-04-22T06:38:23.329Z,4.41
2024-04-22T06:40:50.081Z,4.47
2024-04-22T06:43:18.190Z,4.66
2024-04-22T06:45:45.334Z,4.77
2024-04-22T06:48:12.181Z,4.94
2024-04-22T06:50:42.949Z,5.07
2024-04-22T06:53:09.754Z,5.21
2024-04-22T06:55:36.477Z,5.35
2024-04-22T06:58:03.415Z,5.43
2024-04-22T07:00:33.459Z,5.56
2024-04-22T07:03:00.360Z,5.70
2024-04-22T07:05:27.052Z,5.78
2024-04-22T07:07:53.659Z,5.92
2024-04-22T07:10:21.960Z,6.06
2024-04-22T07:12:48.818Z,6.19
2024-04-22T07:15:15.516Z,6.33
2024-04-22T07:17:42.236Z,6.41
2024-04-22T07:20:09.013Z,6.56
2024-04-22T07:22:39.556Z,6.63
2024-04-22T07:25:09.073Z,6.70
2024-04-22T07:27:35.950Z,6.82
2024-04-22T07:30:04.687Z,6.95
2024-04-22T07:32:31.815Z,7.00
2024-04-22T07:34:58.818Z,7.07
2024-04-22T07:37:34.159Z,7.17
2024-04-22T07:40:03.993Z,7.26
2024-04-22T07:42:30.634Z,7.33
2024-04-22T07:44:57.307Z,7.42
2024-04-22T07:47:23.976Z,7.54
2024-04-22T07:49:50.668Z,7.65
2024-04-22T07:52:17.702Z,7.70
2024-04-22T07:54:44.647Z,7.76
2024-04-22T07:57:11.546Z,7.88
2024-04-22T07:59:38.408Z,7.97
2024-04-22T08:02:05.422Z,7.99
2024-04-22T08:04:32.449Z,8.05
2024-04-22T08:07:04.014Z,8.14
2024-04-22T08:09:31.609Z,8.21
2024-04-22T08:11:58.936Z,8.26
2024-04-22T08:14:25.573Z,8.31
2024-04-22T08:16:52.403Z,8.36
2024-04-22T08:19:19.126Z,8.51
2024-04-22T08:21:46.401Z,8.61
2024-04-22T08:24:13.084Z,8.73
2024-04-22T08:26:39.744Z,8.71
2024-04-22T08:29:06.403Z,8.77
2024-04-22T08:31:35.411Z,8.85
2024-04-22T08:34:02.233Z,8.93
2024-04-22T08:36:28.838Z,9.01
2024-04-22T08:38:55.516Z,9.01
2024-04-22T08:41:22.699Z,9.10
2024-04-22T08:43:50.004Z,9.16
2024-04-22T08:46:19.006Z,9.31
2024-04-22T08:48:45.719Z,9.46
2024-04-22T08:51:12.916Z,9.44
2024-04-22T08:53:39.574Z,9.37
2024-04-22T08:56:07.157Z,9.43
2024-04-22T08:58:33.856Z,9.56
2024-04-22T09:01:04.998Z,9.60
2024-04-22T09:03:31.692Z,9.85
2024-04-22T09:05:58.483Z,10.18
2024-04-22T09:08:25.267Z,10.44
2024-04-22T09:13:31.192Z,10.57
2024-04-22T09:15:58.112Z,10.34
2024-04-22T09:18:30.062Z,10.01
2024-04-22T09:21:11.352Z,9.46
2024-04-22T09:23:38.857Z,9.03
2024-04-22T09:26:06.894Z,8.68
2024-04-22T09:28:39.081Z,8.30
2024-04-22T09:31:06.672Z,7.92
2024-04-22T09:33:37.902Z,7.66
2024-04-22T09:36:06.669Z,7.49
2024-04-22T09:38:46.160Z,7.29
2024-04-22T09:41:15.478Z,7.15
2024-04-22T09:43:49.612Z,7.01
2024-04-22T09:46:20.519Z,6.93
2024-04-22T09:48:48.818Z,6.98
2024-04-22T09:51:15.839Z,7.21
2024-04-22T09:53:42.810Z,7.34
2024-04-22T09:56:12.729Z,7.54
2024-04-22T09:58:41.625Z,7.71
2024-04-22T10:01:08.896Z,7.91
2024-04-22T10:03:36.889Z,8.00
2024-04-22T10:06:06.405Z,8.13
2024-04-22T10:08:34.628Z,8.24
2024-04-22T10:11:09.844Z,8.45
2024-04-22T10:13:37.436Z,8.66
2024-04-22T10:16:05.967Z,8.91
2024-04-22T10:18:32.809Z,9.08
2024-04-22T10:21:04.002Z,9.20
2024-04-22T10:23:30.857Z,9.37
2024-04-22T10:25:57.936Z,9.59
2024-04-22T10:28:24.681Z,9.56
2024-04-22T10:30:51.410Z,9.70
2024-04-22T10:33:18.214Z,9.85
2024-04-22T10:35:44.989Z,10.07
2024-04-22T10:38:11.644Z,10.32
2024-04-22T10:40:38.427Z,10.41
2024-04-22T10:43:05.318Z,10.42
2024-04-22T10:45:33.085Z,10.46
2024-04-22T10:48:08.648Z,10.52
2024-04-22T10:50:44.829Z,10.71
2024-04-22T10:53:11.561Z,10.65
2024-04-22T10:55:38.446Z,10.44
2024-04-22T10:58:05.653Z,10.23
2024-04-22T11:00:33.167Z,10.08
2024-04-22T11:03:00.493Z,9.83
2024-04-22T11:05:28.589Z,9.74
2024-04-22T11:07:55.480Z,9.76
2024-04-22T11:10:31.018Z,9.80
2024-04-22T11:13:01.832Z,9.73
2024-04-22T11:15:28.531Z,9.73
2024-04-22T11:18:05.099Z,9.82
2024-04-22T11:20:32.924Z,10.12
2024-04-22T11:22:59.740Z,10.26
2024-04-22T11:25:26.513Z,10.25
2024-04-22T11:27:53.303Z,10.34
2024-04-22T11:30:20.202Z,10.42
2024-04-22T11:32:46.906Z,10.31
2024-04-22T11:35:13.819Z,10.21
2024-04-22T11:37:41.272Z,10.33
2024-04-22T11:40:10.169Z,10.54
2024-04-22T11:42:36.863Z,10.63
2024-04-22T11:45:06.489Z,10.37
2024-04-22T11:47:33.702Z,10.10
2024-04-22T11:50:00.459Z,10.00
2024-04-22T11:52:27.216Z,9.96
2024-04-22T11:54:53.872Z,9.89
2024-04-22T11:57:20.495Z,10.05
2024-04-22T11:59:47.208Z,9.99
2024-04-22T12:02:18.050Z,9.86
2024-04-22T12:04:45.874Z,9.89
2024-04-22T12:07:12.773Z,9.93
2024-04-22T12:09:39.409Z,10.30
2024-04-22T12:12:06.526Z,10.39
2024-04-22T12:14:33.178Z,10.42
2024-04-22T12:16:59.978Z,10.24
2024-04-22T12:19:26.883Z,9.93
2024-04-22T12:21:53.722Z,9.81
2024-04-22T12:24:20.377Z,9.67
2024-04-22T12:26:47.020Z,9.77
2024-04-22T12:29:13.636Z,10.14
2024-04-22T12:31:40.549Z,10.29
2024-04-22T12:34:12.653Z,10.22
2024-04-22T12:36:41.120Z,10.15
2024-04-22T12:39:07.766Z,10.32
2024-04-22T12:41:34.467Z,10.52
2024-04-22T12:44:04.046Z,10.68
2024-04-22T12:46:57.422Z,10.87
2024-04-22T12:49:42.768Z,10.86
2024-04-22T12:52:10.244Z,10.60
2024-04-22T12:54:36.937Z,10.53
2024-04-22T12:57:03.824Z,10.73
2024-04-22T12:59:30.617Z,11.01
2024-04-22T13:01:57.609Z,11.11
2024-04-22T13:04:24.572Z,11.07
2024-04-22T13:06:51.380Z,10.91
2024-04-22T13:09:18.366Z,11.05
2024-04-22T13:11:45.771Z,11.08
2024-04-22T13:14:12.460Z,10.86
2024-04-22T13:16:39.104Z,10.58
2024-04-22T13:19:07.786Z,10.53
2024-04-22T13:21:34.937Z,10.73
2024-04-22T13:24:01.872Z,11.00
2024-04-22T13:26:28.607Z,11.11
2024-04-22T13:28:55.244Z,11.17
2024-04-22T13:31:23.044Z,11.32
2024-04-22T13:33:54.763Z,10.86
2024-04-22T13:36:21.453Z,10.43
2024-04-22T13:38:48.359Z,10.78
2024-04-22T13:41:15.162Z,11.35
2024-04-22T13:43:41.928Z,11.73
2024-04-22T13:46:08.824Z,12.12
2024-04-22T13:48:35.495Z,12.40
2024-04-22T13:51:02.483Z,12.79
2024-04-22T13:53:32.089Z,12.99
2024-04-22T13:55:59.758Z,13.17
2024-04-22T13:58:26.688Z,12.61
2024-04-22T14:00:53.532Z,11.86
2024-04-22T14:03:20.275Z,11.72
2024-04-22T14:05:46.931Z,12.38
2024-04-22T14:08:13.558Z,12.88
2024-04-22T14:10:40.439Z,12.95
2024-04-22T14:13:07.122Z,13.02
2024-04-22T14:15:44.702Z,13.22
2024-04-22T14:18:14.586Z,13.02
2024-04-22T14:20:41.956Z,13.28
2024-04-22T14:23:08.564Z,13.61
2024-04-22T14:25:35.902Z,13.78
2024-04-22T14:28:02.722Z,13.94
2024-04-22T14:30:29.395Z,13.41
2024-04-22T14:32:56.229Z,12.32
2024-04-22T14:35:22.943Z,11.65
2024-04-22T14:37:49.737Z,11.11
2024-04-22T14:40:16.588Z,10.81
2024-04-22T14:42:43.247Z,10.51
2024-04-22T14:45:09.983Z,10.34
2024-04-22T14:47:36.722Z,10.33
2024-04-22T14:50:03.489Z,10.66
2024-04-22T14:52:30.252Z,11.08
2024-04-22T14:54:56.964Z,11.26
2024-04-22T14:57:25.194Z,11.58
2024-04-22T14:59:51.886Z,11.78
2024-04-22T15:02:18.636Z,11.86
2024-04-22T15:04:45.523Z,11.40
2024-04-22T15:07:13.190Z,11.32
2024-04-22T15:09:43.056Z,11.12
2024-04-22T15:12:10.169Z,10.98
2024-04-22T15:14:36.846Z,11.21
2024-04-22T15:17:03.636Z,11.40
2024-04-22T15:19:30.458Z,11.64
2024-04-22T15:21:57.409Z,11.75
2024-04-22T15:24:24.309Z,11.49
2024-04-22T15:26:51.009Z,11.65
2024-04-22T15:29:17.881Z,12.01
2024-04-22T15:31:44.565Z,11.55
2024-04-22T15:34:11.332Z,11.29
2024-04-22T15:36:38.221Z,10.88
2024-04-22T15:39:08.364Z,10.43
2024-04-22T15:41:35.464Z,10.19
2024-04-22T15:44:03.490Z,10.04
2024-04-22T15:46:31.262Z,9.87
2024-04-22T15:48:58.053Z,9.75
2024-04-22T15:51:24.920Z,9.72
2024-04-22T15:53:51.890Z,9.77
2024-04-22T15:56:18.990Z,10.13
2024-04-22T15:58:45.885Z,9.84
2024-04-22T16:01:12.661Z,9.57
2024-04-22T16:03:39.537Z,9.31
2024-04-22T16:06:06.573Z,9.14
2024-04-22T16:08:33.357Z,9.10
2024-04-22T16:11:00.057Z,9.14
2024-04-22T16:13:26.863Z,9.33
2024-04-22T16:15:53.604Z,9.42
2024-04-22T16:18:20.411Z,9.51
2024-04-22T16:20:56.514Z,9.37
2024-04-22T16:23:31.706Z,9.16
2024-04-22T16:26:00.346Z,8.95
2024-04-22T16:28:27.197Z,8.92
2024-04-22T16:30:53.946Z,8.95
2024-04-22T16:33:20.684Z,9.06
2024-04-22T16:35:47.311Z,9.11
2024-04-22T16:38:13.943Z,9.26
2024-04-22T16:40:40.616Z,9.31
2024-04-22T16:43:08.914Z,9.32
2024-04-22T16:45:35.551Z,9.37
2024-04-22T16:48:02.431Z,9.39
2024-04-22T16:50:29.291Z,9.44
2024-04-22T16:52:56.045Z,9.35
2024-04-22T16:55:22.768Z,9.33
2024-04-22T16:57:49.460Z,9.27
2024-04-22T17:00:16.268Z,9.17
2024-04-22T17:02:43.077Z,9.08
2024-04-22T17:05:09.800Z,8.97
2024-04-22T17:07:36.900Z,8.95
2024-04-22T17:10:08.076Z,8.89
2024-04-22T17:12:34.722Z,8.83
2024-04-22T17:15:02.035Z,8.82
2024-04-22T17:17:28.878Z,8.80
2024-04-22T17:19:55.572Z,8.72
2024-04-22T17:22:22.248Z,8.62
2024-04-22T17:24:51.824Z,8.52
2024-04-22T17:27:21.742Z,8.49
2024-04-22T17:29:48.553Z,8.44
2024-04-22T17:32:15.870Z,8.89
2024-04-22T17:34:42.671Z,9.11
2024-04-22T17:37:12.409Z,9.00
2024-04-22T17:39:42.161Z,8.67
2024-04-22T17:42:10.144Z,8.63
2024-04-22T17:44:36.929Z,8.52
2024-04-22T17:47:04.955Z,8.48
2024-04-22T17:49:33.616Z,8.37
2024-04-22T17:52:00.292Z,8.32
2024-04-22T17:54:27.697Z,8.28
2024-04-22T17:56:59.763Z,8.31
2024-04-22T17:59:32.102Z,9.61
2024-04-22T18:01:58.742Z,9.77
2024-04-22T18:04:27.059Z,10.16
2024-04-22T18:06:53.936Z,9.74
2024-04-22T18:09:20.635Z,9.07
2024-04-22T18:11:47.452Z,8.53
2024-04-22T18:14:14.215Z,8.29
2024-04-22T18:16:42.358Z,7.86
2024-04-22T18:19:09.238Z,7.57
2024-04-22T18:21:36.017Z,7.39
2024-04-22T18:24:05.980Z,7.22
2024-04-22T18:26:34.455Z,7.08
2024-04-22T18:29:01.578Z,6.95
2024-04-22T18:31:28.241Z,6.90
2024-04-22T18:33:54.891Z,6.79
2024-04-22T18:36:21.518Z,6.70
2024-04-22T18:38:49.073Z,6.64
2024-04-22T18:41:15.968Z,6.59
2024-04-22T18:43:42.756Z,6.54
2024-04-22T18:46:09.704Z,6.40
2024-04-22T18:48:36.495Z,6.35
2024-04-22T18:51:03.313Z,6.29
2024-04-22T18:53:30.241Z,6.22
2024-04-22T18:55:57.288Z,6.13
2024-04-22T18:58:29.167Z,6.10
2024-04-22T19:00:56.244Z,6.02
2024-04-22T19:03:23.003Z,6.01
2024-04-22T19:05:49.667Z,5.98
2024-04-22T19:08:16.361Z,5.92
2024-04-22T19:10:43.213Z,5.89
2024-04-22T19:13:10.084Z,5.83
2024-04-22T19:15:36.868Z,5.79
2024-04-22T19:18:03.810Z,5.81
2024-04-22T19:20:30.626Z,5.76
2024-04-22T19:22:57.310Z,5.68
2024-04-22T19:25:24.128Z,5.65
2024-04-22T19:27:52.283Z,5.62
2024-04-22T19:30:19.363Z,5.56
2024-04-22T19:32:46.402Z,5.51
2024-04-22T19:35:13.342Z,5.46
2024-04-22T19:37:40.928Z,5.44
2024-04-22T19:40:08.191Z,5.41
2024-04-22T19:42:34.944Z,5.37
2024-04-22T19:45:03.805Z,5.36
2024-04-22T19:47:31.099Z,5.32
2024-04-22T19:49:58.150Z,5.25
2024-04-22T19:52:24.904Z,5.20
2024-04-22T19:54:54.639Z,5.21
2024-04-22T19:57:23.108Z,5.15
2024-04-22T19:59:50.488Z,5.13
2024-04-22T20:02:17.254Z,5.10
2024-04-22T20:04:45.109Z,5.01
2024-04-22T20:07:11.908Z,4.97
2024-04-22T20:09:38.676Z,4.98
2024-04-22T20:12:05.967Z,4.93
2024-04-22T20:14:32.652Z,4.93
2024-04-22T20:16:59.307Z,4.85
2024-04-22T20:19:26.961Z,4.82
2024-04-22T20:21:53.598Z,4.76
2024-04-22T20:24:20.236Z,4.81
2024-04-22T20:26:46.911Z,4.75
2024-04-22T20:29:15.647Z,4.73
2024-04-22T20:31:42.483Z,4.71
2024-04-22T20:34:09.302Z,4.71
2024-04-22T20:36:35.986Z,4.64
2024-04-22T20:39:02.619Z,4.58
2024-04-22T20:41:29.798Z,4.53
2024-04-22T20:43:56.973Z,4.53
2024-04-22T20:46:23.712Z,4.48
2024-04-22T20:48:50.392Z,4.48
2024-04-22T20:51:17.734Z,4.42
2024-04-22T20:53:44.435Z,4.43
2024-04-22T20:56:11.078Z,4.43
2024-04-22T20:58:37.815Z,4.39
2024-04-22T21:01:08.683Z,4.33
2024-04-22T21:03:36.074Z,4.29
2024-04-22T21:06:04.717Z,4.28
2024-04-22T21:08:31.947Z,4.29
2024-04-22T21:11:01.135Z,4.23
2024-04-22T21:13:30.079Z,4.24
2024-04-22T21:15:56.771Z,4.27
2024-04-22T21:18:23.449Z,4.25
2024-04-22T21:20:50.480Z,4.22
2024-04-22T21:23:17.274Z,4.16
2024-04-22T21:25:44.011Z,4.17
2024-04-22T21:28:10.780Z,4.11
2024-04-22T21:30:37.434Z,4.07
2024-04-22T21:33:18.121Z,4.04
2024-04-22T21:35:51.379Z,4.05
2024-04-22T21:38:18.041Z,4.02
2024-04-22T21:40:45.914Z,3.98
2024-04-22T21:43:12.616Z,3.98
2024-04-22T21:45:39.520Z,3.96
2024-04-22T21:48:06.629Z,3.90
2024-04-22T21:50:33.262Z,3.88
2024-04-22T21:52:59.916Z,3.84
2024-04-22T21:55:32.794Z,3.87
2024-04-22T21:58:37.064Z,3.79
2024-04-22T22:01:41.529Z,3.80
2024-04-22T22:04:45.702Z,3.76
2024-04-22T22:07:16.574Z,3.74
2024-04-22T22:09:44.327Z,3.72
2024-04-22T22:12:10.966Z,3.70
2024-04-22T22:14:37.595Z,3.72
2024-04-22T22:17:04.382Z,3.69
2024-04-22T22:19:32.090Z,3.66
2024-04-22T22:21:58.822Z,3.64
2024-04-22T22:24:25.431Z,3.63
2024-04-22T22:26:52.090Z,3.61
2024-04-22T22:29:18.763Z,3.60
2024-04-22T22:31:45.378Z,3.57
2024-04-22T22:34:12.265Z,3.53
2024-04-22T22:36:38.880Z,3.53
2024-04-22T22:39:05.491Z,3.55
2024-04-22T22:41:32.113Z,3.50
2024-04-22T22:43:58.789Z,3.53
2024-04-22T22:46:25.449Z,3.51
2024-04-22T22:48:52.076Z,3.46
2024-04-22T22:51:18.715Z,3.42
2024-04-22T22:53:45.395Z,3.40
2024-04-22T22:56:12.026Z,3.35
2024-04-22T22:58:38.658Z,3.36
2024-04-22T23:01:05.449Z,3.37
2024-04-22T23:03:32.114Z,3.33
2024-04-22T23:05:58.751Z,3.29
2024-04-22T23:08:25.342Z,3.29
2024-04-22T23:10:52.157Z,3.25
2024-04-22T23:13:18.911Z,3.24
2024-04-22T23:15:45.511Z,3.21
2024-04-22T23:18:12.155Z,3.21
2024-04-22T23:20:38.792Z,3.20
2024-04-22T23:23:05.502Z,3.18
2024-04-22T23:25:32.194Z,3.15
2024-04-22T23:27:58.871Z,3.22
2024-04-22T23:30:25.529Z,3.20
2024-04-22T23:32:52.205Z,3.17
2024-04-22T23:35:18.934Z,3.17
2024-04-22T23:37:45.623Z,3.18
2024-04-22T23:40:12.323Z,3.19
2024-04-22T23:42:38.956Z,3.15
2024-04-22T23:45:05.880Z,3.12
2024-04-22T23:47:32.618Z,3.04
2024-04-22T23:49:59.389Z,3.05
2024-04-22T23:52:26.138Z,2.99
2024-04-22T23:54:52.759Z,2.96
2024-04-22T23:57:19.386Z,2.96
2024-04-22T23:59:46.037Z,2.89
